Other Surface Observations
Issued by NWS Missoula, MT

Current Version | Previous Version | Text Only | Print | Product List | Glossary On
Versions: 1 2 3 4 5 6 7 8 9 10 11 12 13 14 15 16 17 18 19 20 21 22 23 24 25 26 27 28 29 30 31 32 33 34 35 36 37 38 39 40 41 42 43 44 45 46 47 48 49 50
000
SXUS55 KMSO 270823
OSOMSO
MONTANA AWOS SUMMARY
NATIONAL WEATHER SERVICE MISSOULA MT
223 AM MDT WED MAY 27 2015

Montana AWOS Reports

LAUREL      |K6S8 270815Z AUTO 00000KT 40SM 09/06 A2995 RMK AO1 T00940061
MALTA       |KM75 270815Z AUTO 00000KT 40SM 13/09 A2988 RMK AO1 T01330089
TWIN BRIDGES|K7S1 270815Z AUTO 00000KT 40SM 10/07 A3002 RMK AO1 T01000072
ROUNDUP     |KRPX 270815Z AUTO 00000KT 40SM 10/08 A2989 RMK AO1 T01000078




USA.gov is the U.S. government's official web portal to all federal, state and local government web resources and services.